Travis Air Force Base
KSUU : rendu visible

Aérodrome :











RETROUVEZ-NOUS SUR...

 
LOGIN :

S'inscrire | Disclaimer

   EN    FR    IT 

 









Légende :    VFR   VFR Marginal   IFR   IFR Intensif   IFR Très Intensif
Visi : 
Plafond : 
>= 8 km
>= 3000ft
5 à 8 km
1000 à 3000 ft
1500m à 5 km
500 à 1000 ft
800 à 1500m
200 à 500 ft
< 800m
< 200 ft
Symboles :   Orages  Brouillard  Fortes neiges  Fortes précipitations  Vent > 20 kt






- Altitude de l'aérodrome : 62 ft


KSUU - Travis Air Force Base

DERNIER METAR :
  • 081158Z AUTO 22011KT 10SM CLR 09/07 A2993 RMK AO2 SLP142 T00890070 10094 20076 52011 $

METARs EXPIRÉS :
  • 081058Z AUTO 21013KT 10SM CLR 09/07 A2992 RMK AO2 SLP139 T00900073 $
  • 080958Z AUTO 19009KT 10SM CLR 09/07 A2991 RMK AO2 SLP135 T00850066 $

TAF TAF KSUU
Valide du 08 à 11h jusqu'au 09 à 17h UTC


081100Z 0811/0917 23012KT 9999 FEW060 SCT100 QNH2985INS
BECMG 0823/0824 23012G18KT 9999 SCT030 SCT070 QNH2983INS
BECMG 0905/0906 23015G25KT 9999 SCT020 BKN030 QNH2989INS
BECMG 0911/0912 23010G15KT 9999 VCSH BKN015 OVC025 QNH2992INS TX20/0822Z TN07/0814Z



MET'MAP, la Météo Aéronautique d'un coup d'oeil ! - Copyright ORBIFLY Décembre 2007 - Disclaimer

ORBIFLY MET'MAP TEAM :

Programmation & Développement : Alexandra Zaïnal
Sur une idée originale de : Baudouin d'Aumeries
Assistance à la programmation : Marc-Olivier Méhu
Soutien technique & logistique : Manuel Goepfert

Contact : metmap@orbifly.com




SOURCES & CREDITS :

   NOAA       Earth
Advisory